McCoole, Maryland
Current Conditions -  °F | °C
As of 1:47 AM on Tuesday 21 Oct 2014 (Local Time) from KCBE Reporting Station
Scattered Clouds Scattered Clouds  
Wind Chill: 46°   Ceiling: Unl
Heat Index: 46°   Visibility: 10mi
Dew Point: 45°   Wind: 0mph
Humidity: 93%   Direction: NA
Pressure: 29.92"   Gusts: NA
Location:  39.4853°N, 79.0116°W
Report Text: KCBE 210547Z AUTO 00000KT 10SM SCT049 SCT055 SCT085 08/07 A2992 RMK AO1
Loading
Personal Weather Stations






























Interactive Weather Map
Tropical Storm Tracking
New forecast layout! Learn more

10-Day Weather Forecast

Advertisements
Track Severe Weather on mobile